createdAt,value
2022-10-01T17:11:28.334Z,54.33
2022-10-01T17:14:21.118Z,44.72
2022-10-01T17:17:07.051Z,52.45
2022-10-01T17:19:52.867Z,39.88
2022-10-01T17:22:39.492Z,39.17
2022-10-01T17:25:32.051Z,46.28
2022-10-01T17:28:20.188Z,49.55
2022-10-01T17:31:07.453Z,82.88
2022-10-01T17:33:53.307Z,40.75
2022-10-01T17:36:39.902Z,35.90
2022-10-01T17:39:25.943Z,32.00
2022-10-01T17:42:12.553Z,30.20
2022-10-01T17:44:59.340Z,51.83
2022-10-01T17:47:47.010Z,44.90
2022-10-01T17:50:33.081Z,21.85
2022-10-01T17:53:18.913Z,22.13
2022-10-01T17:56:14.530Z,28.83
2022-10-01T17:59:00.415Z,24.60
2022-10-01T18:01:46.211Z,29.98
2022-10-01T18:04:32.006Z,32.20
2022-10-01T18:07:18.281Z,62.03
2022-10-01T18:10:10.258Z,50.47
2022-10-01T18:12:57.686Z,47.42
2022-10-01T18:15:43.873Z,38.38
2022-10-01T18:21:36.468Z,42.50
2022-10-01T18:24:21.988Z,45.58
2022-10-01T18:27:07.979Z,33.30
2022-10-01T18:29:53.850Z,39.38
2022-10-01T18:32:48.206Z,30.15
2022-10-01T18:38:27.272Z,33.70
2022-10-01T18:41:32.027Z,31.00
2022-10-01T18:44:20.585Z,38.97
2022-10-01T18:47:26.687Z,28.60
2022-10-01T18:50:35.684Z,34.83
2022-10-01T18:53:32.583Z,30.67
2022-10-01T18:56:35.602Z,27.80
2022-10-01T18:59:46.405Z,25.08
2022-10-01T19:02:53.738Z,27.65
2022-10-01T19:06:10.503Z,30.75
2022-10-01T19:09:21.567Z,29.65
2022-10-01T19:12:28.300Z,17.73
2022-10-01T19:15:33.959Z,15.48
2022-10-01T19:18:56.749Z,11.60
2022-10-01T19:21:58.517Z,12.32
2022-10-01T19:24:57.930Z,15.30
2022-10-01T19:27:49.335Z,12.68
2022-10-01T19:30:59.346Z,10.43
2022-10-01T19:33:50.462Z,5.40
2022-10-01T19:36:40.927Z,4.68
2022-10-01T19:39:31.162Z,4.45
2022-10-01T19:42:29.878Z,5.03
2022-10-01T19:45:28.878Z,6.03
2022-10-01T19:48:36.431Z,4.18
2022-10-01T19:51:29.203Z,3.78
2022-10-01T19:54:19.450Z,4.10
2022-10-01T19:57:26.326Z,5.85
2022-10-01T20:00:22.940Z,7.65
2022-10-01T20:03:39.421Z,4.57
2022-10-01T20:06:41.415Z,5.15
2022-10-01T20:09:32.789Z,8.40
2022-10-01T20:12:43.442Z,6.68
2022-10-01T20:15:55.637Z,9.63
2022-10-01T20:18:47.861Z,8.02
2022-10-01T20:21:59.634Z,9.15
2022-10-01T20:25:00.352Z,8.10
2022-10-01T20:28:06.562Z,7.30
2022-10-01T20:31:04.080Z,8.68
2022-10-01T20:34:00.334Z,7.80
2022-10-01T20:37:11.361Z,6.80
2022-10-01T20:40:05.389Z,7.45
2022-10-01T20:43:12.243Z,11.10
2022-10-01T20:46:04.562Z,9.55
2022-10-01T20:48:58.627Z,7.90
2022-10-01T20:52:17.650Z,10.20
2022-10-01T20:55:26.666Z,8.10
2022-10-01T20:58:18.441Z,6.88
2022-10-01T21:01:12.789Z,7.20
2022-10-01T21:04:06.349Z,6.97
2022-10-01T21:07:02.011Z,7.03
2022-10-01T21:09:50.866Z,6.70
2022-10-01T21:12:41.206Z,11.82
2022-10-01T21:15:35.077Z,8.30
2022-10-01T21:18:27.858Z,11.18
2022-10-01T21:21:27.236Z,6.43
2022-10-01T21:24:44.171Z,5.78
2022-10-01T21:27:29.779Z,7.95
2022-10-01T21:30:22.415Z,8.55
2022-10-01T21:33:33.859Z,5.97
2022-10-01T21:36:55.519Z,6.13
2022-10-01T21:40:04.005Z,5.93
2022-10-01T21:43:05.519Z,6.90
2022-10-01T21:46:19.641Z,6.13
2022-10-01T21:49:28.445Z,6.28
2022-10-01T21:52:44.571Z,6.93
2022-10-01T21:55:45.908Z,7.35
2022-10-01T21:59:07.411Z,7.72
2022-10-01T22:02:19.315Z,4.72
2022-10-01T22:05:34.008Z,4.55
2022-10-01T22:08:32.652Z,7.30
2022-10-01T22:11:26.163Z,5.00
2022-10-01T22:14:17.777Z,5.20
2022-10-01T22:17:16.057Z,5.00
2022-10-01T22:20:05.113Z,4.90
2022-10-01T22:22:55.483Z,5.80
2022-10-01T22:25:48.643Z,8.38
2022-10-01T22:28:40.902Z,7.13
2022-10-01T22:31:32.858Z,7.65
2022-10-01T22:34:23.845Z,5.88
2022-10-01T22:37:51.398Z,5.32
2022-10-01T22:40:46.292Z,6.75
2022-10-01T22:43:32.151Z,6.63
2022-10-01T22:46:49.869Z,8.07
2022-10-01T22:49:40.638Z,4.55
2022-10-01T22:53:14.643Z,6.85
2022-10-01T22:56:00.332Z,5.90
2022-10-01T22:59:29.928Z,5.20
2022-10-01T23:02:25.680Z,7.18
2022-10-01T23:05:36.783Z,4.78
2022-10-01T23:08:39.655Z,7.22
2022-10-01T23:12:00.936Z,8.65
2022-10-01T23:15:19.382Z,6.60
2022-10-01T23:18:23.712Z,8.40
2022-10-01T23:21:44.919Z,5.93
2022-10-01T23:24:52.529Z,7.90
2022-10-01T23:27:56.435Z,9.75
2022-10-01T23:31:19.990Z,5.47
2022-10-01T23:34:24.677Z,7.22
2022-10-01T23:37:29.352Z,7.28
2022-10-01T23:40:20.713Z,13.77
2022-10-01T23:43:15.474Z,6.05
2022-10-01T23:46:23.032Z,7.20
2022-10-01T23:49:15.595Z,5.13
2022-10-01T23:52:22.127Z,7.97
2022-10-01T23:55:49.177Z,8.07
2022-10-01T23:58:50.801Z,9.68
